Time;durP1;ratioP1;P1;durP2;ratioP2;P2;SDS_P1;SDS_P2;PMS_P1;PMS_P2;Temp;Humidity;BMP_temperature;BMP_pressure;BME280_temperature;BME280_humidity;BME280_pressure;Samples;Min_cycle;Max_cycle;Signal;HPM_P1;HPM_P2
2021/04/21 00:00:07;;;;;;;7.35;5.25;;;;;;;8.71;66.87;98690.72;1717401;82;21163;-41
2021/04/21 00:02:35;;;;;;;6.92;5.20;;;;;;;8.77;66.83;98688.48;1689666;82;21732;-41
2021/04/21 00:05:05;;;;;;;5.75;5.15;;;;;;;8.83;66.63;98695.16;1687478;83;21440;-41
2021/04/21 00:07:32;;;;;;;7.45;5.22;;;;;;;8.50;66.64;98645.05;1684849;83;21218;-41
2021/04/21 00:10:00;;;;;;;6.72;5.60;;;;;;;8.76;66.70;98691.58;1715940;82;21166;-41
2021/04/21 00:12:29;;;;;;;6.70;5.37;;;;;;;8.71;66.87;98690.72;1723776;82;21453;-41
2021/04/21 00:14:57;;;;;;;6.33;5.35;;;;;;;8.74;66.87;98695.98;1701183;83;21177;-41
2021/04/21 00:17:25;;;;;;;7.85;5.53;;;;;;;8.77;66.82;98690.41;1714429;83;21222;-41
2021/04/21 00:19:56;;;;;;;6.72;4.75;;;;;;;8.78;66.85;98700.86;1711781;83;21068;-41
2021/04/21 00:22:27;;;;;;;5.55;4.53;;;;;;;8.86;66.76;98697.12;1686544;83;21211;-41
2021/04/21 00:24:54;;;;;;;5.70;5.10;;;;;;;8.94;66.54;98696.66;1719094;82;21180;-41
2021/04/21 00:27:27;;;;;;;5.95;5.08;;;;;;;9.01;66.21;98701.59;1717432;82;21649;-41
2021/04/21 00:29:58;;;;;;;6.72;5.17;;;;;;;8.96;66.16;98697.84;1713803;83;21206;-41
2021/04/21 00:32:26;;;;;;;7.50;5.67;;;;;;;8.86;66.31;98703.12;1732587;81;21204;-41
2021/04/21 00:34:56;;;;;;;9.25;6.05;;;;;;;8.82;66.46;98714.42;1735527;82;21536;-41
2021/04/21 00:37:28;;;;;;;5.80;5.15;;;;;;;8.77;66.55;98713.37;1743605;80;22188;-41
2021/04/21 00:39:57;;;;;;;6.20;5.20;;;;;;;8.71;66.73;98715.63;1755253;80;21634;-42
2021/04/21 00:42:46;;;;;;;6.20;5.17;;;;;;;8.66;66.83;98713.23;1745636;80;21455;-41
2021/04/21 00:45:17;;;;;;;6.25;5.50;;;;;;;8.33;66.85;98667.16;1704244;84;21535;-41
2021/04/21 00:48:24;;;;;;;7.03;6.05;;;;;;;8.67;66.96;98710.16;1738998;80;21091;-41
2021/04/21 00:50:59;;;;;;;6.45;5.72;;;;;;;8.65;67.00;98710.32;1736735;80;21664;-41
2021/04/21 00:53:42;;;;;;;8.23;6.20;;;;;;;8.57;67.26;98713.46;1734133;80;21215;-41
2021/04/21 00:56:35;;;;;;;7.87;6.30;;;;;;;8.53;67.35;98716.68;1730134;82;21397;-41
2021/04/21 00:59:24;;;;;;;7.40;5.87;;;;;;;8.47;67.56;98711.36;1743984;81;21165;-41
2021/04/21 01:01:52;;;;;;;6.80;5.45;;;;;;;8.46;67.62;98715.80;1716545;83;21194;-41
2021/04/21 01:04:20;;;;;;;6.22;5.50;;;;;;;8.43;67.69;98715.14;1720291;82;21760;-41
2021/04/21 01:06:52;;;;;;;8.08;5.65;;;;;;;8.39;67.87;98715.09;1771507;80;21206;-41
2021/04/21 01:09:21;;;;;;;6.28;5.42;;;;;;;8.36;68.01;98709.64;1795954;79;22134;-41
2021/04/21 01:12:06;;;;;;;6.45;5.53;;;;;;;8.31;68.12;98708.02;1741783;81;21163;-41
2021/04/21 01:14:40;;;;;;;7.05;5.67;;;;;;;8.28;68.27;98710.83;1772336;79;21194;-41
2021/04/21 01:17:11;;;;;;;5.62;5.03;;;;;;;8.28;68.36;98706.77;1771639;81;21147;-41
2021/04/21 01:20:05;;;;;;;6.03;5.12;;;;;;;8.35;68.33;98710.77;1772512;79;21610;-41
2021/04/21 01:23:13;;;;;;;8.60;5.78;;;;;;;8.37;68.35;98713.91;1788308;78;21723;-41
2021/04/21 01:26:27;;;;;;;6.58;5.53;;;;;;;8.36;68.49;98708.29;1800414;78;21190;-41
2021/04/21 01:28:56;;;;;;;6.95;5.05;;;;;;;8.37;68.54;98711.20;1779761;78;21044;-41
2021/04/21 01:31:24;;;;;;;6.35;5.17;;;;;;;8.31;68.71;98713.98;1764194;81;21149;-41
2021/04/21 01:33:52;;;;;;;5.80;4.70;;;;;;;8.30;68.80;98714.55;1714048;82;21153;-41
2021/04/21 01:36:23;;;;;;;4.65;4.25;;;;;;;8.34;68.82;98720.02;1768275;80;21361;-41
2021/04/21 01:38:52;;;;;;;7.05;5.50;;;;;;;8.38;68.70;98720.84;1755369;80;21166;-41
2021/04/21 01:41:26;;;;;;;5.85;5.30;;;;;;;8.36;68.76;98717.74;1713731;82;21016;-41
2021/04/21 01:44:04;;;;;;;5.85;5.22;;;;;;;8.37;68.87;98719.31;1761099;80;21644;-41
2021/04/21 01:46:38;;;;;;;6.95;5.50;;;;;;;8.39;68.79;98727.81;1762921;80;21196;-41
2021/04/21 01:49:29;;;;;;;7.78;5.60;;;;;;;8.39;68.75;98724.55;1744032;80;21201;-41
2021/04/21 01:52:03;;;;;;;7.72;4.85;;;;;;;8.40;68.71;98728.03;1742796;80;21156;-41
2021/04/21 01:54:30;;;;;;;6.90;6.00;;;;;;;8.43;68.63;98725.95;1736745;80;21183;-41
2021/04/21 01:57:02;;;;;;;7.70;5.97;;;;;;;8.46;68.66;98727.38;1771865;80;21633;-41
2021/04/21 01:59:45;;;;;;;7.85;5.70;;;;;;;8.45;68.64;98721.77;1685034;83;21163;-41
2021/04/21 02:02:30;;;;;;;7.10;5.62;;;;;;;8.43;68.70;98723.25;1698996;82;22045;-41
2021/04/21 02:05:27;;;;;;;7.00;5.83;;;;;;;8.39;68.80;98721.06;1708467;83;21205;-41
2021/04/21 02:08:17;;;;;;;6.75;5.53;;;;;;;8.37;68.86;98720.09;1708496;83;21758;-41
2021/04/21 02:11:18;;;;;;;6.75;5.37;;;;;;;8.38;68.90;98722.20;1771100;80;21198;-41
2021/04/21 02:14:27;;;;;;;7.30;5.70;;;;;;;8.40;68.95;98726.68;1681176;85;21069;-41
2021/04/21 02:17:29;;;;;;;7.92;5.72;;;;;;;8.36;69.00;98729.89;1742821;82;21353;-41
2021/04/21 02:20:31;;;;;;;7.10;5.87;;;;;;;8.26;69.27;98732.59;1757458;80;21462;-41
2021/04/21 02:23:10;;;;;;;9.25;5.47;;;;;;;8.23;69.42;98734.64;1700965;83;21200;-41
2021/04/21 02:26:26;;;;;;;8.43;5.92;;;;;;;8.27;69.47;98732.24;1695625;83;21198;-41
2021/04/21 02:29:22;;;;;;;9.70;6.15;;;;;;;8.31;69.39;98732.89;1703951;83;21137;-41
2021/04/21 02:32:22;;;;;;;7.75;6.45;;;;;;;8.25;69.57;98735.08;1699220;82;21305;-41
2021/04/21 02:35:01;;;;;;;8.63;5.70;;;;;;;8.23;69.66;98735.42;1695846;82;21036;-41
2021/04/21 02:38:10;;;;;;;8.18;5.72;;;;;;;8.21;69.77;98735.02;1771148;79;21156;-41
2021/04/21 02:40:59;;;;;;;8.28;5.75;;;;;;;8.23;69.69;98736.77;1790036;79;21533;-41
2021/04/21 02:44:02;;;;;;;8.55;5.55;;;;;;;8.33;69.61;98741.42;1798604;79;21178;-41
2021/04/21 02:46:47;;;;;;;9.05;6.33;;;;;;;8.34;69.59;98741.62;1801239;79;21198;-41
2021/04/21 02:49:36;;;;;;;11.33;7.10;;;;;;;8.34;69.63;98741.62;1788676;79;21740;-41
2021/04/21 02:52:32;;;;;;;6.65;6.03;;;;;;;8.33;69.57;98748.18;1794159;79;21017;-41
2021/04/21 02:55:21;;;;;;;8.43;6.33;;;;;;;8.31;69.59;98747.75;1799753;79;21194;-41
2021/04/21 02:58:09;;;;;;;8.38;6.08;;;;;;;8.32;69.59;98749.31;1770453;79;21458;-41
2021/04/21 03:00:44;;;;;;;7.70;5.90;;;;;;;8.39;69.59;98750.20;1770559;79;21204;-41
2021/04/21 03:03:50;;;;;;;7.50;6.40;;;;;;;8.43;69.52;98746.99;1784463;79;21747;-41
2021/04/21 03:06:35;;;;;;;9.65;6.03;;;;;;;8.44;69.40;98755.88;1801457;79;21151;-41
2021/04/21 03:09:08;;;;;;;7.30;6.35;;;;;;;8.38;69.46;98756.74;1799922;79;21142;-41
2021/04/21 03:11:36;;;;;;;13.58;6.92;;;;;;;8.32;69.64;98757.41;1785779;79;21601;-41
2021/04/21 03:14:13;;;;;;;9.08;6.22;;;;;;;8.31;69.75;98757.20;1788106;79;21197;-41
2021/04/21 03:17:07;;;;;;;7.83;6.10;;;;;;;8.35;69.74;98762.88;1801227;79;21162;-41
2021/04/21 03:19:42;;;;;;;7.85;6.28;;;;;;;8.31;69.74;98759.90;1784248;79;21032;-41
2021/04/21 03:22:15;;;;;;;9.20;6.62;;;;;;;8.25;69.97;98760.16;1731682;82;21752;-41
2021/04/21 03:24:48;;;;;;;10.70;6.72;;;;;;;8.21;70.09;98759.32;1801112;79;21154;-41
2021/04/21 03:27:26;;;;;;;9.98;6.20;;;;;;;8.24;70.13;98761.30;1818421;77;22861;-40
2021/04/21 03:29:54;;;;;;;9.93;6.72;;;;;;;8.20;70.15;98766.42;1793210;77;21668;-40
2021/04/21 03:32:32;;;;;;;7.85;6.42;;;;;;;8.27;70.07;98766.00;1788320;77;21483;-40
2021/04/21 03:34:59;;;;;;;11.30;6.33;;;;;;;8.31;69.91;98776.10;1811054;77;21715;-41
2021/04/21 03:37:34;;;;;;;8.40;6.92;;;;;;;8.29;69.94;98773.19;1776065;79;21051;-40
2021/04/21 03:40:02;;;;;;;10.68;7.17;;;;;;;8.29;69.96;98773.19;1783175;80;21047;-40
2021/04/21 03:42:32;;;;;;;8.38;6.65;;;;;;;8.25;69.99;98779.06;1719542;82;21636;-40
2021/04/21 03:45:01;;;;;;;8.80;7.03;;;;;;;8.22;70.04;98779.79;1729467;80;21371;-40
2021/04/21 03:47:29;;;;;;;9.20;7.15;;;;;;;8.28;70.02;98784.30;1735326;82;21080;-41
2021/04/21 03:49:57;;;;;;;7.10;6.25;;;;;;;8.31;69.93;98785.55;1750027;80;21043;-40
2021/04/21 03:52:26;;;;;;;9.90;7.37;;;;;;;8.31;69.93;98796.36;1720038;81;21194;-41
2021/04/21 03:54:56;;;;;;;11.63;7.37;;;;;;;8.31;69.96;98801.76;1741451;80;21190;-41
2021/04/21 03:57:25;;;;;;;13.32;8.15;;;;;;;8.31;69.91;98795.01;1749313;80;21449;-41
2021/04/21 03:59:52;;;;;;;9.75;7.03;;;;;;;8.30;69.87;98803.67;1714477;81;22317;-41
2021/04/21 04:02:21;;;;;;;10.58;7.20;;;;;;;8.34;69.88;98799.68;1746554;80;21158;-41
2021/04/21 04:04:53;;;;;;;9.73;7.65;;;;;;;8.42;69.75;98802.74;1709361;81;21648;-41
2021/04/21 04:07:23;;;;;;;10.25;7.40;;;;;;;8.43;69.81;98802.94;1743526;80;21464;-41
2021/04/21 04:09:51;;;;;;;;;;;;;;;8.41;69.78;98810.06;1749199;80;21941;-41
2021/04/21 04:12:19;;;;;;;10.25;7.28;;;;;;;8.39;69.91;98810.98;1748151;80;20478;-41
2021/04/21 04:14:49;;;;;;;11.95;7.60;;;;;;;7.99;70.17;98756.59;1745558;80;21198;-41
2021/04/21 04:17:21;;;;;;;8.85;7.15;;;;;;;8.34;70.01;98801.03;1700904;80;21174;-41
2021/04/21 04:19:49;;;;;;;11.15;7.28;;;;;;;8.39;69.87;98810.20;1740842;80;21229;-42
2021/04/21 04:22:19;;;;;;;11.43;8.18;;;;;;;8.41;69.61;98800.61;1744591;80;22292;-41
2021/04/21 04:24:53;;;;;;;9.70;7.62;;;;;;;8.43;69.63;98798.31;1744625;80;26600;-41
2021/04/21 04:27:25;;;;;;;13.80;8.13;;;;;;;8.45;69.68;98802.80;1736209;81;21189;-41
2021/04/21 04:29:55;;;;;;;13.75;7.90;;;;;;;8.44;69.60;98807.20;1717091;82;21733;-41
2021/04/21 04:32:24;;;;;;;;;;;;;;;8.45;69.85;98820.92;1718771;82;21156;-41
2021/04/21 04:34:57;;;;;;;11.25;7.53;;;;;;;8.47;70.06;98825.41;1719165;82;21274;-41
2021/04/21 04:37:28;;;;;;;10.55;8.68;;;;;;;8.41;70.27;98831.67;1729442;82;21669;-41
2021/04/21 04:39:55;;;;;;;7.53;5.72;;;;;;;8.42;70.26;98838.64;1730136;82;21225;-41
2021/04/21 04:42:23;;;;;;;10.13;7.95;;;;;;;8.43;70.13;98847.50;1724045;82;21415;-41
2021/04/21 04:44:51;;;;;;;9.80;7.20;;;;;;;8.41;69.93;98848.45;1735196;81;21422;-41
2021/04/21 04:47:33;;;;;;;8.48;7.20;;;;;;;8.40;69.84;98842.83;1702214;83;21199;-41
2021/04/21 04:50:16;;;;;;;8.28;6.58;;;;;;;8.43;69.86;98842.09;1780832;79;21486;-41
2021/04/21 04:52:54;;;;;;;10.32;7.62;;;;;;;8.50;69.56;98844.95;1778313;78;21187;-41
2021/04/21 04:55:23;;;;;;;10.65;8.00;;;;;;;8.48;69.39;98847.21;1762431;80;21578;-41
2021/04/21 04:57:54;;;;;;;9.73;8.33;;;;;;;8.45;69.26;98849.29;1774343;80;21139;-41
2021/04/21 05:02:52;;;;;;;14.95;7.28;;;;;;;8.44;69.41;98852.55;1751565;79;22484;-41
2021/04/21 05:05:20;;;;;;;10.23;7.80;;;;;;;8.38;69.48;98853.19;1724252;82;26356;-40
2021/04/21 05:07:57;;;;;;;11.85;8.65;;;;;;;8.42;69.44;98851.36;1744196;82;21198;-42
2021/04/21 05:10:28;;;;;;;14.05;8.35;;;;;;;8.43;69.36;98853.69;1725155;82;21064;-42
2021/04/21 05:12:58;;;;;;;11.73;8.63;;;;;;;8.43;69.25;98861.01;1726486;82;21613;-42
2021/04/21 05:15:52;;;;;;;10.98;8.80;;;;;;;8.39;69.09;98856.11;1723728;82;21632;-42
2021/04/21 05:18:38;;;;;;;9.28;8.23;;;;;;;8.36;69.16;98849.52;1720723;82;21597;-41
2021/04/21 05:21:51;;;;;;;11.60;8.20;;;;;;;8.43;69.18;98854.25;1730328;82;21398;-41
2021/04/21 05:24:28;;;;;;;10.55;8.13;;;;;;;8.47;69.20;98858.59;1721320;82;21044;-41
2021/04/21 05:27:42;;;;;;;13.45;8.80;;;;;;;8.51;69.06;98854.05;1734121;82;21033;-41
2021/04/21 05:30:33;;;;;;;12.40;9.15;;;;;;;8.53;68.66;98857.16;1682459;82;21138;-41
2021/04/21 05:33:24;;;;;;;10.30;8.08;;;;;;;8.49;68.87;98852.27;1734343;82;21206;-41
2021/04/21 05:36:13;;;;;;;10.28;8.18;;;;;;;8.53;68.93;98859.86;1719998;82;22115;-41
2021/04/21 05:39:05;;;;;;;9.70;8.45;;;;;;;8.65;68.98;98861.64;1721490;82;21228;-41
2021/04/21 05:42:12;;;;;;;11.57;8.68;;;;;;;8.76;68.87;98859.13;1718430;82;21206;-42
2021/04/21 05:45:18;;;;;;;14.18;8.53;;;;;;;8.89;68.62;98867.27;1727920;82;21210;-42
2021/04/21 05:48:20;;;;;;;11.60;8.98;;;;;;;8.97;67.89;98868.95;1723771;82;21716;-42
2021/04/21 05:51:29;;;;;;;12.18;9.05;;;;;;;9.03;67.58;98879.11;1730400;82;21224;-41
2021/04/21 05:54:23;;;;;;;10.70;8.23;;;;;;;9.14;67.35;98870.62;1733908;82;21182;-41
2021/04/21 05:57:12;;;;;;;14.33;8.70;;;;;;;9.34;67.13;98880.01;1746962;82;21190;-42
2021/04/21 06:00:12;;;;;;;11.80;8.70;;;;;;;9.52;66.23;98882.41;1703763;83;21174;-42
2021/04/21 06:02:41;;;;;;;;;;;;;;;9.67;66.39;98874.72;1721480;83;21131;-43
2021/04/21 06:07:51;;;;;;;15.03;8.90;;;;;;;9.92;65.95;98880.48;1820773;77;22423;-43
2021/04/21 06:10:27;;;;;;;12.98;7.95;;;;;;;10.04;65.39;98881.03;1787185;79;20972;-43
2021/04/21 06:13:00;;;;;;;13.40;7.45;;;;;;;10.20;64.11;98884.94;1801710;79;21378;-41
2021/04/21 06:15:32;;;;;;;8.43;6.95;;;;;;;10.28;62.81;98884.45;1758812;80;21035;-41
2021/04/21 06:18:03;;;;;;;8.48;6.80;;;;;;;10.27;62.31;98885.59;1779071;80;21028;-41
2021/04/21 06:20:39;;;;;;;7.28;6.30;;;;;;;10.26;62.32;98889.47;1741743;81;21044;-41
2021/04/21 06:23:21;;;;;;;6.83;6.00;;;;;;;10.29;62.18;98881.95;1740405;80;21413;-42
2021/04/21 06:25:52;;;;;;;7.60;5.70;;;;;;;10.37;62.01;98887.08;1758133;80;21261;-42
2021/04/21 06:28:22;;;;;;;7.50;5.83;;;;;;;10.46;62.00;98893.56;1763492;80;21371;-42
2021/04/21 06:31:05;;;;;;;9.43;6.57;;;;;;;10.57;61.83;98885.55;1775534;80;20988;-42
2021/04/21 06:33:37;;;;;;;8.75;6.50;;;;;;;10.70;62.13;98888.99;1760677;80;21171;-42
2021/04/21 06:36:07;;;;;;;11.50;6.92;;;;;;;10.90;61.38;98892.30;1759197;80;21186;-42
2021/04/21 06:38:36;;;;;;;;;;;;;;;11.02;60.57;98892.05;1782437;80;21182;-42
2021/04/21 06:41:05;;;;;;;5.65;4.12;;;;;;;11.01;59.77;98889.69;1765145;80;20322;-42
2021/04/21 06:43:37;;;;;;;8.38;6.55;;;;;;;10.94;60.99;98892.35;1748521;81;21075;-42
2021/04/21 06:46:10;;;;;;;6.60;5.95;;;;;;;11.08;60.22;98893.84;1760229;80;21122;-42
2021/04/21 06:48:37;;;;;;;8.08;5.62;;;;;;;11.11;60.05;98893.08;1765823;80;21197;-42
2021/04/21 06:51:13;;;;;;;7.10;5.47;;;;;;;11.10;59.34;98896.95;1758475;80;21218;-42
2021/04/21 06:53:43;;;;;;;6.83;5.37;;;;;;;11.12;58.66;98898.72;1764364;80;21730;-42
2021/04/21 06:56:11;;;;;;;8.53;6.50;;;;;;;11.10;59.74;98899.66;1778903;80;21039;-42
2021/04/21 06:58:39;;;;;;;8.55;6.12;;;;;;;11.03;59.73;98905.03;1778643;80;21179;-42
2021/04/21 07:01:24;;;;;;;8.60;6.65;;;;;;;10.92;60.34;98905.49;1767275;80;21157;-42
2021/04/21 07:03:49;;;;;;;8.75;5.90;;;;;;;10.78;60.73;98901.49;1761002;80;22355;-42
2021/04/21 07:06:17;;;;;;;7.70;6.10;;;;;;;10.68;60.00;98910.29;1742930;82;21179;-42
2021/04/21 07:08:45;;;;;;;8.08;6.12;;;;;;;10.69;60.83;98912.42;1738746;80;21167;-43
2021/04/21 07:11:16;;;;;;;9.33;6.60;;;;;;;10.70;60.91;98913.39;1738022;82;21170;-42
2021/04/21 07:13:50;;;;;;;9.58;6.47;;;;;;;10.72;60.95;98917.88;1768687;81;21134;-42
2021/04/21 07:16:27;;;;;;;12.07;6.80;;;;;;;10.67;60.77;98916.85;1756264;81;21213;-42
2021/04/21 07:19:00;;;;;;;7.67;6.15;;;;;;;10.65;60.83;98921.09;1734791;82;21614;-42
2021/04/21 07:21:30;;;;;;;7.10;6.22;;;;;;;10.62;61.07;98924.53;1734525;80;22462;-42
2021/04/21 07:24:03;;;;;;;8.13;6.30;;;;;;;10.65;60.88;98921.85;1761204;80;21083;-42
2021/04/21 07:26:39;;;;;;;6.92;5.90;;;;;;;10.72;60.71;98926.02;1718084;82;21052;-42
2021/04/21 07:29:20;;;;;;;8.98;6.50;;;;;;;10.83;60.73;98920.71;1724310;80;21965;-42
2021/04/21 07:31:48;;;;;;;10.25;6.17;;;;;;;11.07;60.76;98930.25;1762613;81;21590;-43
2021/04/21 07:34:29;;;;;;;;;;;;;;;11.36;59.64;98923.94;1734264;82;21178;-42
2021/04/21 07:36:57;;;;;;;7.78;5.60;;;;;;;11.54;58.66;98930.28;1723095;80;20507;-42
2021/04/21 07:39:39;;;;;;;8.05;5.85;;;;;;;11.53;57.64;98934.15;1753310;80;21202;-42
2021/04/21 07:42:18;;;;;;;9.23;6.28;;;;;;;11.62;58.06;98933.25;1786081;79;22257;-42
2021/04/21 07:44:54;;;;;;;;;;;;;;;11.72;58.23;98938.02;1796626;77;20985;-42
2021/04/21 07:47:25;;;;;;;7.42;5.95;;;;;;;11.81;57.05;98941.00;1799265;79;20260;-42
2021/04/21 07:50:01;;;;;;;6.92;5.30;;;;;;;11.75;57.26;98938.64;1804074;79;21198;-43
2021/04/21 07:52:33;;;;;;;6.62;5.37;;;;;;;11.83;57.14;98935.38;1791706;79;21697;-43
2021/04/21 07:55:17;;;;;;;7.15;5.87;;;;;;;11.81;55.55;98937.70;1745753;81;21191;-42
2021/04/21 07:57:58;;;;;;;7.78;4.97;;;;;;;11.78;56.51;98943.09;1717019;82;21643;-42
2021/04/21 08:00:29;;;;;;;8.10;5.97;;;;;;;11.85;56.93;98946.66;1768053;81;21732;-42
2021/04/21 08:03:00;;;;;;;5.78;4.65;;;;;;;11.96;55.71;98943.41;1737523;82;21168;-42
2021/04/21 08:05:27;;;;;;;6.15;5.00;;;;;;;12.02;55.66;98938.41;1721641;83;21159;-42
2021/04/21 08:08:00;;;;;;;5.22;4.53;;;;;;;12.06;54.29;98948.14;1738518;81;21287;-42
2021/04/21 08:10:34;;;;;;;7.40;4.50;;;;;;;12.05;54.54;98945.82;1783427;80;21190;-42
2021/04/21 08:13:02;;;;;;;6.60;5.50;;;;;;;12.14;54.70;98953.05;1744465;81;21178;-42
2021/04/21 08:15:41;;;;;;;7.42;5.17;;;;;;;12.23;53.55;98948.05;1796256;78;21198;-42
2021/04/21 08:18:11;;;;;;;7.30;5.60;;;;;;;12.25;53.55;98958.55;1796913;78;21175;-42
2021/04/21 08:20:55;;;;;;;6.00;5.40;;;;;;;12.14;54.34;98948.98;1821548;78;21395;-42
2021/04/21 08:23:24;;;;;;;6.78;5.05;;;;;;;12.14;54.44;98946.26;1772432;78;21188;-42
2021/04/21 08:25:53;;;;;;;5.22;4.72;;;;;;;12.16;54.09;98950.72;1804253;78;21067;-42
2021/04/21 08:28:22;;;;;;;5.92;4.58;;;;;;;12.30;53.47;98950.02;1805958;77;21418;-42
2021/04/21 08:30:59;;;;;;;5.87;4.87;;;;;;;12.34;52.78;98925.02;1811267;78;21613;-42
2021/04/21 08:33:28;;;;;;;6.22;5.03;;;;;;;12.69;52.36;98933.30;1822947;78;21632;-42
2021/04/21 08:35:59;;;;;;;5.35;4.33;;;;;;;12.88;52.45;98932.18;1793381;80;21161;-43
2021/04/21 08:38:28;;;;;;;6.03;4.60;;;;;;;13.08;49.97;98934.77;1819292;77;21089;-42
2021/04/21 08:40:56;;;;;;;7.12;4.85;;;;;;;13.20;50.68;98937.73;1798478;79;21165;-42
2021/04/21 08:43:24;;;;;;;6.05;4.87;;;;;;;13.26;50.03;98934.26;1822091;78;21719;-42
2021/04/21 08:45:54;;;;;;;4.97;4.47;;;;;;;13.33;51.13;98939.70;1778456;80;21253;-42
2021/04/21 08:48:21;;;;;;;5.87;4.50;;;;;;;13.51;50.52;98930.77;1812315;77;21199;-42
2021/04/21 08:50:49;;;;;;;6.15;4.55;;;;;;;13.62;48.05;98932.89;1784467;79;21350;-42
2021/04/21 08:53:17;;;;;;;6.17;4.50;;;;;;;13.64;48.65;98933.30;1810900;78;21422;-42
2021/04/21 08:55:45;;;;;;;5.12;4.12;;;;;;;13.69;48.53;98932.91;1825815;78;21169;-42
2021/04/21 08:58:14;;;;;;;5.58;3.72;;;;;;;13.77;48.26;98927.63;1763128;80;21383;-42
2021/04/21 09:00:41;;;;;;;4.60;3.67;;;;;;;13.93;48.33;98923.92;1818152;78;21166;-42
2021/04/21 09:03:10;;;;;;;4.08;3.42;;;;;;;14.22;47.01;98929.51;1798473;78;21166;-42
2021/04/21 09:05:40;;;;;;;4.92;3.70;;;;;;;14.47;45.50;98934.14;1797375;78;21178;-41
2021/04/21 09:08:09;;;;;;;4.00;3.60;;;;;;;14.61;45.60;98925.89;1764622;79;21163;-42
2021/04/21 09:10:39;;;;;;;5.83;4.25;;;;;;;14.72;44.22;98930.70;1736399;80;21157;-42
2021/04/21 09:13:11;;;;;;;4.92;3.62;;;;;;;14.79;44.90;98936.13;1757437;80;21438;-42
2021/04/21 09:15:39;;;;;;;5.10;4.10;;;;;;;14.78;44.93;98931.26;1755302;80;21107;-42
2021/04/21 09:18:07;;;;;;;5.53;3.80;;;;;;;14.66;44.13;98940.49;1749172;80;21621;-42
2021/04/21 09:20:40;;;;;;;5.53;4.00;;;;;;;14.40;45.88;98957.33;1773636;80;21649;-42
2021/04/21 09:23:22;;;;;;;5.05;4.28;;;;;;;13.85;46.62;98958.56;1803309;76;22878;-42
2021/04/21 09:25:54;;;;;;;5.00;4.40;;;;;;;13.21;49.17;98959.72;1783954;79;21145;-42
2021/04/21 09:28:23;;;;;;;6.67;4.53;;;;;;;12.61;51.38;98954.26;1784065;79;21257;-41
2021/04/21 09:30:56;;;;;;;6.30;4.03;;;;;;;12.16;52.97;98987.41;1793034;79;21556;-41
2021/04/21 09:33:29;;;;;;;6.72;4.70;;;;;;;11.82;54.50;98995.50;1783561;80;21300;-42
2021/04/21 09:35:58;;;;;;;5.37;4.28;;;;;;;11.50;57.70;98986.48;1804583;79;21011;-42
2021/04/21 09:38:27;;;;;;;4.72;4.12;;;;;;;11.28;59.57;98988.78;1797118;78;21150;-43
2021/04/21 09:40:58;;;;;;;5.72;4.35;;;;;;;11.13;59.99;98991.17;1799323;78;26437;-43
2021/04/21 09:43:32;;;;;;;5.15;3.85;;;;;;;10.90;61.78;98985.28;1783652;80;21016;-43
2021/04/21 09:46:06;;;;;;;5.17;4.40;;;;;;;10.68;63.02;98990.84;1790627;79;21614;-43
2021/04/21 09:48:35;;;;;;;5.25;4.00;;;;;;;10.47;64.00;98991.34;1785981;79;21173;-43
2021/04/21 09:51:15;;;;;;;5.53;3.85;;;;;;;10.28;65.14;98989.53;1804007;79;21154;-43
2021/04/21 09:53:46;;;;;;;4.78;3.95;;;;;;;10.17;64.80;98991.30;1797532;79;21352;-42
2021/04/21 09:56:20;;;;;;;5.30;3.83;;;;;;;10.06;65.00;98993.64;1760628;80;21202;-43
2021/04/21 09:58:57;;;;;;;5.05;3.87;;;;;;;10.00;65.62;98993.16;1738661;81;21039;-43
2021/04/21 10:01:29;;;;;;;4.25;3.20;;;;;;;10.00;65.67;98997.22;1796021;79;21150;-44
2021/04/21 10:04:19;;;;;;;3.92;2.85;;;;;;;9.96;66.09;98995.04;1793049;79;21162;-43
2021/04/21 10:06:59;;;;;;;2.85;2.42;;;;;;;9.86;65.55;98993.73;1785977;79;21387;-44
2021/04/21 10:09:38;;;;;;;2.87;2.30;;;;;;;9.73;64.69;98990.98;1793550;79;21456;-44
2021/04/21 10:12:26;;;;;;;1.70;1.60;;;;;;;9.64;65.60;98977.48;1796230;79;21440;-44
2021/04/21 10:15:10;;;;;;;2.83;2.00;;;;;;;9.68;65.23;98960.19;1797187;78;21396;-44
2021/04/21 10:17:42;;;;;;;2.50;2.12;;;;;;;9.83;65.07;98967.36;1797518;79;21170;-44
2021/04/21 10:20:15;;;;;;;3.60;2.27;;;;;;;10.08;64.35;98962.89;1799255;79;21216;-44
2021/04/21 10:22:45;;;;;;;5.62;2.12;;;;;;;10.32;65.82;98970.04;1792103;79;21735;-44
2021/04/21 10:25:15;;;;;;;2.87;2.15;;;;;;;10.57;65.76;98962.23;1797350;79;21578;-44
2021/04/21 10:27:43;;;;;;;3.27;2.10;;;;;;;10.77;65.88;98951.44;1796700;79;21441;-44
2021/04/21 10:30:14;;;;;;;4.37;2.12;;;;;;;11.12;64.57;98968.68;1797421;79;21173;-44
2021/04/21 10:32:42;;;;;;;2.60;2.08;;;;;;;11.41;61.92;98975.16;1799450;79;21604;-44
2021/04/21 10:35:12;;;;;;;2.75;2.05;;;;;;;11.70;62.35;98969.41;1798322;79;21444;-44
2021/04/21 10:37:41;;;;;;;2.27;1.97;;;;;;;12.02;61.06;98970.44;1797083;79;21185;-44
2021/04/21 10:40:12;;;;;;;2.30;2.10;;;;;;;12.39;58.80;98966.18;1796455;79;21757;-44
2021/04/21 10:42:51;;;;;;;3.05;2.67;;;;;;;12.83;59.96;98958.42;1796201;79;21157;-44
2021/04/21 10:45:25;;;;;;;2.40;2.20;;;;;;;13.29;55.13;98960.70;1796818;79;21187;-44
2021/04/21 10:47:55;;;;;;;2.98;2.30;;;;;;;13.74;55.94;98956.45;1795297;79;21169;-44
2021/04/21 10:50:43;;;;;;;5.15;3.00;;;;;;;14.08;56.37;98956.80;1797877;79;21147;-44
2021/04/21 10:53:30;;;;;;;4.50;3.58;;;;;;;14.32;53.46;98957.92;1760677;79;21154;-44
2021/04/21 10:56:20;;;;;;;3.90;3.50;;;;;;;14.44;53.17;98969.00;1782706;79;21722;-44
2021/04/21 10:58:54;;;;;;;4.97;3.47;;;;;;;14.48;52.16;98967.03;1795659;79;21189;-44
2021/04/21 11:01:36;;;;;;;4.20;3.42;;;;;;;14.46;51.42;98969.40;1797457;79;21205;-44
2021/04/21 11:04:06;;;;;;;4.17;3.30;;;;;;;14.43;52.87;98974.26;1797179;79;21181;-43
2021/04/21 11:06:46;;;;;;;5.30;3.65;;;;;;;14.35;52.32;98971.53;1795770;78;21143;-44
2021/04/21 11:09:15;;;;;;;6.25;3.95;;;;;;;14.26;52.43;98974.48;1788154;77;21137;-44
2021/04/21 11:11:47;;;;;;;4.67;4.17;;;;;;;14.14;52.14;98968.06;1797357;79;22245;-44
2021/04/21 11:14:17;;;;;;;4.72;4.30;;;;;;;14.12;52.21;98964.97;1797437;79;21138;-44
2021/04/21 11:16:45;;;;;;;4.08;3.60;;;;;;;14.08;52.56;98966.34;1802340;79;21107;-44
2021/04/21 11:19:25;;;;;;;5.72;4.35;;;;;;;14.20;52.40;98974.09;1792612;79;21138;-44
2021/04/21 11:22:16;;;;;;;6.33;4.90;;;;;;;14.40;53.49;98971.75;1798550;78;21471;-44
2021/04/21 11:24:45;;;;;;;5.35;4.80;;;;;;;14.54;52.10;98964.88;1798538;78;23442;-44
2021/04/21 11:27:42;;;;;;;4.85;4.33;;;;;;;14.54;51.51;98975.02;1769479;79;21592;-44
2021/04/21 11:30:39;;;;;;;9.73;5.78;;;;;;;14.47;51.53;98973.69;1795556;79;21042;-44
2021/04/21 11:33:07;;;;;;;6.47;5.17;;;;;;;14.21;51.82;98968.84;1714292;83;21626;-44
2021/04/21 11:35:36;;;;;;;5.40;4.60;;;;;;;13.94;52.00;98973.18;1712287;83;21213;-44
2021/04/21 11:38:04;;;;;;;5.83;4.55;;;;;;;13.67;52.32;98967.34;1753421;79;21518;-44
2021/04/21 11:40:36;;;;;;;6.33;4.75;;;;;;;13.43;54.56;98967.52;1803800;79;21132;-43
2021/04/21 11:43:16;;;;;;;6.90;4.62;;;;;;;13.24;54.27;98972.55;1808151;79;21016;-44
2021/04/21 11:45:46;;;;;;;6.53;5.28;;;;;;;13.08;55.37;98973.64;1796941;77;21703;-44
2021/04/21 11:48:18;;;;;;;6.67;2.85;;;;;;;12.98;54.84;98969.53;1798589;79;21666;-44
2021/04/21 11:50:48;;;;;;;2.80;2.17;;;;;;;12.77;52.57;98968.11;1797530;79;21195;-44
2021/04/21 11:53:22;;;;;;;2.37;1.90;;;;;;;12.49;53.83;98962.73;1793114;79;21019;-44
2021/04/21 11:55:57;;;;;;;3.47;1.85;;;;;;;12.22;53.67;98973.67;1799246;79;21194;-44
2021/04/21 11:58:28;;;;;;;2.05;1.80;;;;;;;12.02;51.80;98971.80;1794755;79;21149;-43
2021/04/21 12:01:01;;;;;;;2.65;2.10;;;;;;;11.93;52.33;98965.13;1715654;82;21491;-43
2021/04/21 12:03:38;;;;;;;5.42;2.02;;;;;;;11.88;52.06;98957.33;1740496;81;21189;-43
2021/04/21 12:06:15;;;;;;;3.30;2.40;;;;;;;11.88;53.00;98962.77;1800114;79;21644;-43
2021/04/21 12:08:48;;;;;;;3.60;2.15;;;;;;;11.96;52.08;98967.08;1790065;78;21154;-44
2021/04/21 12:11:33;;;;;;;3.55;2.25;;;;;;;12.04;51.12;98967.34;1788748;79;21173;-43
2021/04/21 12:13:58;;;;;;;3.47;2.20;;;;;;;12.14;48.50;98966.06;1795865;79;21162;-43
2021/04/21 12:16:28;;;;;;;2.27;2.00;;;;;;;12.28;48.75;98966.72;1789460;77;21191;-43
2021/04/21 12:18:59;;;;;;;3.90;2.40;;;;;;;12.37;48.82;98963.08;1717688;81;21180;-43
2021/04/21 12:21:35;;;;;;;2.85;1.95;;;;;;;12.44;48.60;98963.09;1745939;81;21157;-43
2021/04/21 12:24:07;;;;;;;1.82;1.60;;;;;;;12.50;49.06;98953.42;1790611;79;21170;-42